»·PEaware :: JBU6112 KLAX-KSFO

JBU6112 :: KLAX-KSFO

FLIGHT INFORMATION

Flight Status: Arrived
Operator:
JetBlue Airways
More flights by this operator :: More flights under this callsign
Pilot: Craig H. (6968)
Aircraft: AIRBUS A321
(A321)
More flights by this aircraft type
Origin: KLAX Los Angeles Intl
United States
Destination: KSFO San Francisco Intl
United States
More flights between these airports :: More routes between these airports
Route: +SUMMR2 STOKD SERFR SERFR3
File this flight plan on PilotEdge
Remarks:
Altitude:
(Current/Filed)
30,000ft
Speed:
(Current/Filed)
430kts
Departed: 28-Feb-20 05:04 PM
Arrived: 28-Feb-20 05:55 PM
Distance/Time
Traveled:
293nm/0:51
Distance/Time
To Go:
Arrived

Flight Plot

Page will automatically refresh every two minutes.

Flight plan parsing failed; only flown route is shown


Map Options




Map Legend


Flown Route
Filed Route
Departure Airport
Arrival Airport
Navaid (VOR, NDB)
Fix

Horizontal Profiles

Position Reports

Time Latitude Longitude Heading Altitude Ground
Speed
28-Feb-20 16:39 33.940225 -118.404951 83 123ft 0kts
28-Feb-20 16:40 33.940225 -118.404951 83 123ft 0kts
28-Feb-20 16:41 33.940225 -118.404951 83 123ft 0kts
28-Feb-20 16:42 33.940225 -118.404951 83 123ft 0kts
28-Feb-20 16:43 33.940225 -118.404951 83 123ft 0kts
28-Feb-20 16:44 33.940225 -118.404951 83 123ft 0kts
28-Feb-20 16:45 33.940225 -118.404951 83 123ft 0kts
28-Feb-20 16:46 33.940225 -118.404951 83 123ft 0kts
28-Feb-20 16:47 33.940225 -118.404951 83 123ft 0kts
28-Feb-20 16:48 33.940225 -118.404951 83 123ft 0kts
28-Feb-20 16:49 33.940204 -118.405160 83 124ft 2kts
28-Feb-20 16:50 33.940420 -118.405542 174 124ft 0kts
28-Feb-20 16:51 33.940420 -118.405541 174 124ft 0kts
28-Feb-20 16:52 33.940420 -118.405541 174 124ft 0kts
28-Feb-20 16:53 33.940420 -118.405541 174 124ft 0kts
28-Feb-20 16:54 33.940420 -118.405541 174 124ft 0kts
28-Feb-20 16:55 33.940420 -118.405541 174 124ft 0kts
28-Feb-20 16:57 33.940420 -118.405541 174 124ft 0kts
28-Feb-20 16:58 33.939267 -118.403251 82 120ft 19kts
28-Feb-20 16:59 33.940003 -118.396096 82 111ft 23kts
28-Feb-20 17:00 33.940716 -118.388244 82 104ft 23kts
28-Feb-20 17:01 33.940667 -118.381502 82 101ft 13kts
28-Feb-20 17:02 33.940713 -118.380747 99 101ft 0kts
28-Feb-20 17:03 33.940116 -118.380133 180 101ft 10kts
28-Feb-20 17:04 33.936728 -118.410680 262 316ft 169kts
28-Feb-20 17:05 33.930731 -118.467277 264 2288ft 182kts
28-Feb-20 17:06 33.924889 -118.539259 265 3601ft 253kts
28-Feb-20 17:07 33.917844 -118.626705 268 6380ft 271kts
28-Feb-20 17:08 33.917267 -118.718593 270 8995ft 285kts
28-Feb-20 17:09 33.916865 -118.818383 270 10802ft 325kts
28-Feb-20 17:10 33.919945 -118.937369 271 11744ft 391kts
28-Feb-20 17:11 33.947357 -119.066910 299 13780ft 420kts
28-Feb-20 17:12 34.014723 -119.184826 312 15993ft 438kts
28-Feb-20 17:13 34.106847 -119.269623 322 19395ft 416kts
28-Feb-20 17:14 34.202576 -119.351226 320 21238ft 426kts
28-Feb-20 17:15 34.299150 -119.434711 320 22861ft 437kts
28-Feb-20 17:16 34.398577 -119.522094 316 24401ft 444kts
28-Feb-20 17:16 34.473272 -119.607237 309 25575ft 445kts
28-Feb-20 17:18 34.575171 -119.733671 308 26775ft 461kts
28-Feb-20 17:19 34.666882 -119.847247 308 27384ft 478kts
28-Feb-20 17:19 34.743799 -119.942487 308 28583ft 472kts
28-Feb-20 17:20 34.834953 -120.055851 307 29873ft 465kts
28-Feb-20 17:22 34.939845 -120.186965 308 30097ft 461kts
28-Feb-20 17:22 35.013916 -120.279820 309 30101ft 459kts
28-Feb-20 17:23 35.102382 -120.388913 312 30102ft 461kts
28-Feb-20 17:25 35.212598 -120.511618 313 30100ft 462kts
28-Feb-20 17:25 35.291240 -120.599948 313 30100ft 462kts
28-Feb-20 17:26 35.385046 -120.706080 312 30097ft 462kts
28-Feb-20 17:27 35.479728 -120.812476 315 30101ft 464kts
28-Feb-20 17:28 35.581572 -120.908645 318 30085ft 466kts
28-Feb-20 17:29 35.684931 -121.004576 318 29922ft 471kts
28-Feb-20 17:30 35.789303 -121.102003 318 29792ft 477kts
28-Feb-20 17:31 35.894627 -121.200661 318 29708ft 485kts
28-Feb-20 17:32 36.000960 -121.300587 319 28673ft 475kts
28-Feb-20 17:33 36.108363 -121.395601 324 27545ft 479kts
28-Feb-20 17:34 36.220484 -121.482359 325 24051ft 486kts
28-Feb-20 17:35 36.331204 -121.568950 325 21543ft 462kts
28-Feb-20 17:36 36.437982 -121.653064 324 20352ft 455kts
28-Feb-20 17:37 36.539688 -121.733521 324 19663ft 413kts
28-Feb-20 17:38 36.632222 -121.806799 324 17978ft 376kts
28-Feb-20 17:39 36.714827 -121.872422 324 16437ft 345kts
28-Feb-20 17:40 36.804387 -121.911538 345 14900ft 342kts
28-Feb-20 17:41 36.896057 -121.936679 345 13406ft 334kts
28-Feb-20 17:42 36.984085 -121.964705 340 11945ft 325kts
28-Feb-20 17:43 37.067989 -121.997566 339 10528ft 317kts
28-Feb-20 17:44 37.148166 -122.028819 339 9880ft 281kts
28-Feb-20 17:45 37.220344 -122.057182 339 8711ft 276kts
28-Feb-20 17:46 37.292201 -122.085412 340 7540ft 264kts
28-Feb-20 17:47 37.361857 -122.112879 341 6096ft 262kts
28-Feb-20 17:48 37.429860 -122.136456 344 4873ft 249kts
28-Feb-20 17:49 37.495448 -122.158481 344 3715ft 242kts
28-Feb-20 17:50 37.547786 -122.197820 296 2848ft 231kts
28-Feb-20 17:51 37.574462 -122.263738 298 1781ft 177kts
28-Feb-20 17:52 37.593994 -122.310450 298 821ft 137kts
28-Feb-20 17:53 37.611526 -122.352373 298 136ft 133kts
28-Feb-20 17:54 37.622933 -122.379605 297 29ft 29kts
28-Feb-20 17:55 37.622924 -122.382465 217 29ft 5kts
28-Feb-20 17:56 37.619994 -122.382842 119 32ft 13kts
28-Feb-20 17:57 37.617057 -122.379499 192 31ft 17kts
28-Feb-20 17:58 37.612647 -122.382285 207 32ft 19kts
28-Feb-20 17:59 37.612097 -122.387244 3 32ft 19kts
28-Feb-20 18:00 37.612641 -122.386123 135 32ft 0kts

Navigation Log

Ident Type
Flight plan parsing failed, navigation log unavailable